sensor_id;sensor_type;location;lat;lon;timestamp;temperature;humidity
44894;DHT22;30625;52.206;21.030;2022-08-21T00:00:52;23.10;85.00
44894;DHT22;30625;52.206;21.030;2022-08-21T00:03:17;22.90;85.80
44894;DHT22;30625;52.206;21.030;2022-08-21T00:05:47;22.80;86.40
44894;DHT22;30625;52.206;21.030;2022-08-21T00:08:14;22.80;86.70
44894;DHT22;30625;52.206;21.030;2022-08-21T00:10:40;22.70;86.80
44894;DHT22;30625;52.206;21.030;2022-08-21T00:13:07;22.70;87.00
44894;DHT22;30625;52.206;21.030;2022-08-21T00:15:35;22.70;87.20
44894;DHT22;30625;52.206;21.030;2022-08-21T00:18:01;22.70;87.10
44894;DHT22;30625;52.206;21.030;2022-08-21T00:20:29;22.80;87.50
44894;DHT22;30625;52.206;21.030;2022-08-21T00:22:54;22.70;87.40
44894;DHT22;30625;52.206;21.030;2022-08-21T00:25:21;22.70;87.40
44894;DHT22;30625;52.206;21.030;2022-08-21T00:27:47;22.60;87.60
44894;DHT22;30625;52.206;21.030;2022-08-21T00:30:15;22.70;87.60
44894;DHT22;30625;52.206;21.030;2022-08-21T00:32:41;22.70;88.00
44894;DHT22;30625;52.206;21.030;2022-08-21T00:35:11;22.70;88.00
44894;DHT22;30625;52.206;21.030;2022-08-21T00:37:38;22.70;88.00
44894;DHT22;30625;52.206;21.030;2022-08-21T00:40:05;22.70;88.60
44894;DHT22;30625;52.206;21.030;2022-08-21T00:42:31;22.70;87.90
44894;DHT22;30625;52.206;21.030;2022-08-21T00:44:56;22.60;88.10
44894;DHT22;30625;52.206;21.030;2022-08-21T00:47:22;22.60;88.50
44894;DHT22;30625;52.206;21.030;2022-08-21T00:49:48;22.60;88.30
44894;DHT22;30625;52.206;21.030;2022-08-21T00:52:17;22.60;88.10
44894;DHT22;30625;52.206;21.030;2022-08-21T00:54:44;22.60;88.40
44894;DHT22;30625;52.206;21.030;2022-08-21T00:57:22;22.50;88.60
44894;DHT22;30625;52.206;21.030;2022-08-21T00:59:51;22.50;89.20
44894;DHT22;30625;52.206;21.030;2022-08-21T01:02:19;22.50;89.00
44894;DHT22;30625;52.206;21.030;2022-08-21T01:04:46;22.40;89.00
44894;DHT22;30625;52.206;21.030;2022-08-21T01:07:11;22.40;89.00
44894;DHT22;30625;52.206;21.030;2022-08-21T01:09:38;22.30;89.10
44894;DHT22;30625;52.206;21.030;2022-08-21T01:12:04;22.30;89.40
44894;DHT22;30625;52.206;21.030;2022-08-21T01:14:31;22.30;89.90
44894;DHT22;30625;52.206;21.030;2022-08-21T01:16:58;22.30;89.60
44894;DHT22;30625;52.206;21.030;2022-08-21T01:19:25;22.30;89.50
44894;DHT22;30625;52.206;21.030;2022-08-21T01:21:52;22.20;89.80
44894;DHT22;30625;52.206;21.030;2022-08-21T01:24:19;22.20;90.00
44894;DHT22;30625;52.206;21.030;2022-08-21T01:26:45;22.20;90.20
44894;DHT22;30625;52.206;21.030;2022-08-21T01:29:33;22.10;90.20
44894;DHT22;30625;52.206;21.030;2022-08-21T01:32:06;22.10;90.40
44894;DHT22;30625;52.206;21.030;2022-08-21T01:34:34;22.10;90.20
44894;DHT22;30625;52.206;21.030;2022-08-21T01:37:01;22.10;90.20
44894;DHT22;30625;52.206;21.030;2022-08-21T01:39:28;22.10;90.30
44894;DHT22;30625;52.206;21.030;2022-08-21T01:41:54;22.00;90.40
44894;DHT22;30625;52.206;21.030;2022-08-21T01:44:23;22.00;90.30
44894;DHT22;30625;52.206;21.030;2022-08-21T01:46:49;21.90;90.30
44894;DHT22;30625;52.206;21.030;2022-08-21T01:49:16;21.90;90.50
44894;DHT22;30625;52.206;21.030;2022-08-21T01:51:41;21.90;90.70
44894;DHT22;30625;52.206;21.030;2022-08-21T01:54:07;21.90;90.80
44894;DHT22;30625;52.206;21.030;2022-08-21T01:56:38;21.90;90.80
44894;DHT22;30625;52.206;21.030;2022-08-21T01:59:04;21.90;90.70
44894;DHT22;30625;52.206;21.030;2022-08-21T02:01:30;21.80;90.60
44894;DHT22;30625;52.206;21.030;2022-08-21T02:03:56;21.70;90.60
44894;DHT22;30625;52.206;21.030;2022-08-21T02:06:21;21.70;90.80
44894;DHT22;30625;52.206;21.030;2022-08-21T02:08:47;21.70;90.80
44894;DHT22;30625;52.206;21.030;2022-08-21T02:11:13;21.70;90.90
44894;DHT22;30625;52.206;21.030;2022-08-21T02:13:39;21.70;91.10
44894;DHT22;30625;52.206;21.030;2022-08-21T02:16:05;21.70;91.10
44894;DHT22;30625;52.206;21.030;2022-08-21T02:18:32;21.70;91.20
44894;DHT22;30625;52.206;21.030;2022-08-21T02:20:57;21.70;91.20
44894;DHT22;30625;52.206;21.030;2022-08-21T02:23:24;21.90;91.30
44894;DHT22;30625;52.206;21.030;2022-08-21T02:25:49;21.70;91.20
44894;DHT22;30625;52.206;21.030;2022-08-21T02:28:15;21.80;91.30
44894;DHT22;30625;52.206;21.030;2022-08-21T02:30:44;21.80;91.40
44894;DHT22;30625;52.206;21.030;2022-08-21T02:33:11;21.80;91.30
44894;DHT22;30625;52.206;21.030;2022-08-21T02:35:39;22.50;91.40
44894;DHT22;30625;52.206;21.030;2022-08-21T02:38:09;21.70;91.40
44894;DHT22;30625;52.206;21.030;2022-08-21T02:40:37;21.70;91.30
44894;DHT22;30625;52.206;21.030;2022-08-21T02:43:04;21.70;91.30
44894;DHT22;30625;52.206;21.030;2022-08-21T02:45:30;21.70;91.40
44894;DHT22;30625;52.206;21.030;2022-08-21T02:47:59;21.70;91.70
44894;DHT22;30625;52.206;21.030;2022-08-21T02:50:30;21.70;91.60
44894;DHT22;30625;52.206;21.030;2022-08-21T02:52:56;21.70;91.20
44894;DHT22;30625;52.206;21.030;2022-08-21T02:55:23;21.60;91.30
44894;DHT22;30625;52.206;21.030;2022-08-21T02:57:49;21.60;91.70
44894;DHT22;30625;52.206;21.030;2022-08-21T03:00:16;21.50;91.60
44894;DHT22;30625;52.206;21.030;2022-08-21T03:02:42;21.40;91.70
44894;DHT22;30625;52.206;21.030;2022-08-21T03:05:09;21.40;91.90
44894;DHT22;30625;52.206;21.030;2022-08-21T03:07:36;21.40;91.90
44894;DHT22;30625;52.206;21.030;2022-08-21T03:10:03;21.50;91.80
44894;DHT22;30625;52.206;21.030;2022-08-21T03:12:29;21.40;91.50
44894;DHT22;30625;52.206;21.030;2022-08-21T03:14:55;21.40;91.50
44894;DHT22;30625;52.206;21.030;2022-08-21T03:17:20;21.20;91.80
44894;DHT22;30625;52.206;21.030;2022-08-21T03:19:46;21.20;92.00
44894;DHT22;30625;52.206;21.030;2022-08-21T03:22:12;21.10;92.20
44894;DHT22;30625;52.206;21.030;2022-08-21T03:24:37;21.10;92.30
44894;DHT22;30625;52.206;21.030;2022-08-21T03:27:03;20.90;92.50
44894;DHT22;30625;52.206;21.030;2022-08-21T03:29:29;21.00;92.90
44894;DHT22;30625;52.206;21.030;2022-08-21T03:31:54;20.90;92.50
44894;DHT22;30625;52.206;21.030;2022-08-21T03:34:21;20.90;92.80
44894;DHT22;30625;52.206;21.030;2022-08-21T03:36:47;20.80;93.00
44894;DHT22;30625;52.206;21.030;2022-08-21T03:39:14;20.60;93.40
44894;DHT22;30625;52.206;21.030;2022-08-21T03:41:40;20.60;93.50
44894;DHT22;30625;52.206;21.030;2022-08-21T03:44:06;20.60;93.70
44894;DHT22;30625;52.206;21.030;2022-08-21T03:46:32;20.50;93.80
44894;DHT22;30625;52.206;21.030;2022-08-21T03:48:58;20.60;93.70
44894;DHT22;30625;52.206;21.030;2022-08-21T03:51:24;20.60;93.70
44894;DHT22;30625;52.206;21.030;2022-08-21T03:53:49;20.60;93.50
44894;DHT22;30625;52.206;21.030;2022-08-21T03:56:15;20.60;93.50
44894;DHT22;30625;52.206;21.030;2022-08-21T03:58:42;20.60;93.70
44894;DHT22;30625;52.206;21.030;2022-08-21T04:01:07;20.60;93.70
44894;DHT22;30625;52.206;21.030;2022-08-21T04:03:35;20.60;93.60
44894;DHT22;30625;52.206;21.030;2022-08-21T04:06:01;20.50;93.80
44894;DHT22;30625;52.206;21.030;2022-08-21T04:08:27;20.60;93.90
44894;DHT22;30625;52.206;21.030;2022-08-21T04:10:55;20.60;93.60
44894;DHT22;30625;52.206;21.030;2022-08-21T04:13:22;20.70;93.50
44894;DHT22;30625;52.206;21.030;2022-08-21T04:15:48;20.60;93.50
44894;DHT22;30625;52.206;21.030;2022-08-21T04:18:13;20.60;93.60
44894;DHT22;30625;52.206;21.030;2022-08-21T04:20:41;20.70;93.70
44894;DHT22;30625;52.206;21.030;2022-08-21T04:23:07;20.70;93.30
44894;DHT22;30625;52.206;21.030;2022-08-21T04:25:33;20.80;93.40
44894;DHT22;30625;52.206;21.030;2022-08-21T04:27:59;20.70;93.40
44894;DHT22;30625;52.206;21.030;2022-08-21T04:30:24;20.70;93.50
44894;DHT22;30625;52.206;21.030;2022-08-21T04:32:51;20.70;93.20
44894;DHT22;30625;52.206;21.030;2022-08-21T04:35:21;20.80;93.30
44894;DHT22;30625;52.206;21.030;2022-08-21T04:37:48;20.70;93.20
44894;DHT22;30625;52.206;21.030;2022-08-21T04:40:16;20.60;93.50
44894;DHT22;30625;52.206;21.030;2022-08-21T04:42:48;20.70;93.40
44894;DHT22;30625;52.206;21.030;2022-08-21T04:47:45;20.70;93.30
44894;DHT22;30625;52.206;21.030;2022-08-21T04:50:11;20.80;93.10
44894;DHT22;30625;52.206;21.030;2022-08-21T04:52:37;20.70;93.30
44894;DHT22;30625;52.206;21.030;2022-08-21T04:55:03;20.80;93.60
44894;DHT22;30625;52.206;21.030;2022-08-21T04:57:28;20.80;93.30
44894;DHT22;30625;52.206;21.030;2022-08-21T04:59:54;21.00;93.10
44894;DHT22;30625;52.206;21.030;2022-08-21T05:02:20;21.00;92.70
44894;DHT22;30625;52.206;21.030;2022-08-21T05:04:51;21.00;92.70
44894;DHT22;30625;52.206;21.030;2022-08-21T05:07:26;20.90;92.60
44894;DHT22;30625;52.206;21.030;2022-08-21T05:09:53;21.00;92.70
44894;DHT22;30625;52.206;21.030;2022-08-21T05:12:19;21.10;92.80
44894;DHT22;30625;52.206;21.030;2022-08-21T05:14:45;21.20;92.50
44894;DHT22;30625;52.206;21.030;2022-08-21T05:17:12;21.20;92.40
44894;DHT22;30625;52.206;21.030;2022-08-21T05:19:38;21.30;92.40
44894;DHT22;30625;52.206;21.030;2022-08-21T05:22:04;21.30;92.30
44894;DHT22;30625;52.206;21.030;2022-08-21T05:24:30;21.30;92.30
44894;DHT22;30625;52.206;21.030;2022-08-21T05:26:55;21.40;92.10
44894;DHT22;30625;52.206;21.030;2022-08-21T05:29:21;21.30;92.20
44894;DHT22;30625;52.206;21.030;2022-08-21T05:31:47;21.40;92.40
44894;DHT22;30625;52.206;21.030;2022-08-21T05:34:14;21.50;92.60
44894;DHT22;30625;52.206;21.030;2022-08-21T05:36:40;21.60;92.10
44894;DHT22;30625;52.206;21.030;2022-08-21T05:39:05;21.60;91.80
44894;DHT22;30625;52.206;21.030;2022-08-21T05:41:31;21.60;91.90
44894;DHT22;30625;52.206;21.030;2022-08-21T05:43:56;21.70;92.00
44894;DHT22;30625;52.206;21.030;2022-08-21T05:46:22;21.80;92.00
44894;DHT22;30625;52.206;21.030;2022-08-21T05:48:48;21.90;91.90
44894;DHT22;30625;52.206;21.030;2022-08-21T05:51:15;22.10;91.40
44894;DHT22;30625;52.206;21.030;2022-08-21T05:53:41;22.20;91.70
44894;DHT22;30625;52.206;21.030;2022-08-21T05:56:08;22.30;91.50
44894;DHT22;30625;52.206;21.030;2022-08-21T05:58:34;22.50;91.40
44894;DHT22;30625;52.206;21.030;2022-08-21T06:01:02;22.70;90.40
44894;DHT22;30625;52.206;21.030;2022-08-21T06:03:31;22.70;90.10
44894;DHT22;30625;52.206;21.030;2022-08-21T06:05:58;23.10;89.80
44894;DHT22;30625;52.206;21.030;2022-08-21T06:08:24;23.40;89.60
44894;DHT22;30625;52.206;21.030;2022-08-21T06:10:51;23.60;86.90
44894;DHT22;30625;52.206;21.030;2022-08-21T06:13:19;23.90;87.60
44894;DHT22;30625;52.206;21.030;2022-08-21T06:15:45;24.50;85.00
44894;DHT22;30625;52.206;21.030;2022-08-21T06:18:11;25.00;84.10
44894;DHT22;30625;52.206;21.030;2022-08-21T06:20:37;25.40;82.20
44894;DHT22;30625;52.206;21.030;2022-08-21T06:23:03;25.90;81.50
44894;DHT22;30625;52.206;21.030;2022-08-21T06:25:29;26.30;80.80
44894;DHT22;30625;52.206;21.030;2022-08-21T06:28:07;26.50;78.90
44894;DHT22;30625;52.206;21.030;2022-08-21T06:30:34;26.80;78.10
44894;DHT22;30625;52.206;21.030;2022-08-21T06:33:01;27.20;77.10
44894;DHT22;30625;52.206;21.030;2022-08-21T06:35:28;27.40;73.60
44894;DHT22;30625;52.206;21.030;2022-08-21T06:37:54;27.50;74.30
44894;DHT22;30625;52.206;21.030;2022-08-21T06:40:20;27.80;74.00
44894;DHT22;30625;52.206;21.030;2022-08-21T06:42:46;28.20;74.50
44894;DHT22;30625;52.206;21.030;2022-08-21T06:45:12;28.30;72.20
44894;DHT22;30625;52.206;21.030;2022-08-21T06:47:37;28.60;71.90
44894;DHT22;30625;52.206;21.030;2022-08-21T06:50:03;28.70;71.60
44894;DHT22;30625;52.206;21.030;2022-08-21T06:52:30;28.60;69.60
44894;DHT22;30625;52.206;21.030;2022-08-21T06:54:56;28.20;70.70
44894;DHT22;30625;52.206;21.030;2022-08-21T06:57:21;28.10;71.50
44894;DHT22;30625;52.206;21.030;2022-08-21T06:59:47;27.90;71.50
44894;DHT22;30625;52.206;21.030;2022-08-21T07:02:13;27.50;72.40
44894;DHT22;30625;52.206;21.030;2022-08-21T07:04:38;27.50;75.00
44894;DHT22;30625;52.206;21.030;2022-08-21T07:07:04;27.50;74.50
44894;DHT22;30625;52.206;21.030;2022-08-21T07:09:30;27.50;74.80
44894;DHT22;30625;52.206;21.030;2022-08-21T07:11:59;27.20;74.30
44894;DHT22;30625;52.206;21.030;2022-08-21T07:14:25;26.90;74.80
44894;DHT22;30625;52.206;21.030;2022-08-21T07:16:51;26.70;75.50
44894;DHT22;30625;52.206;21.030;2022-08-21T07:19:17;26.60;76.60
44894;DHT22;30625;52.206;21.030;2022-08-21T07:21:43;26.50;77.10
44894;DHT22;30625;52.206;21.030;2022-08-21T07:24:09;26.40;78.40
44894;DHT22;30625;52.206;21.030;2022-08-21T07:26:34;26.10;78.70
44894;DHT22;30625;52.206;21.030;2022-08-21T07:29:00;26.10;78.30
44894;DHT22;30625;52.206;21.030;2022-08-21T07:31:27;26.20;78.30
44894;DHT22;30625;52.206;21.030;2022-08-21T07:33:53;26.20;78.40
44894;DHT22;30625;52.206;21.030;2022-08-21T07:36:19;26.10;77.60
44894;DHT22;30625;52.206;21.030;2022-08-21T07:38:45;25.90;77.30
44894;DHT22;30625;52.206;21.030;2022-08-21T07:41:20;25.80;78.90
44894;DHT22;30625;52.206;21.030;2022-08-21T07:43:46;25.60;79.30
44894;DHT22;30625;52.206;21.030;2022-08-21T07:46:12;25.60;80.60
44894;DHT22;30625;52.206;21.030;2022-08-21T07:48:38;25.60;80.70
44894;DHT22;30625;52.206;21.030;2022-08-21T07:51:13;25.60;80.80
44894;DHT22;30625;52.206;21.030;2022-08-21T07:53:39;25.60;80.70
44894;DHT22;30625;52.206;21.030;2022-08-21T07:56:06;25.50;79.80
44894;DHT22;30625;52.206;21.030;2022-08-21T07:58:34;25.30;80.80
44894;DHT22;30625;52.206;21.030;2022-08-21T08:00:59;25.30;81.00
44894;DHT22;30625;52.206;21.030;2022-08-21T08:03:25;25.30;80.90
44894;DHT22;30625;52.206;21.030;2022-08-21T08:05:51;25.20;81.30
44894;DHT22;30625;52.206;21.030;2022-08-21T08:08:16;25.20;81.60
44894;DHT22;30625;52.206;21.030;2022-08-21T08:10:42;25.30;82.00
44894;DHT22;30625;52.206;21.030;2022-08-21T08:13:08;25.30;81.70
44894;DHT22;30625;52.206;21.030;2022-08-21T08:15:35;25.40;84.10
44894;DHT22;30625;52.206;21.030;2022-08-21T08:18:01;25.50;83.10
44894;DHT22;30625;52.206;21.030;2022-08-21T08:20:27;25.50;81.10
44894;DHT22;30625;52.206;21.030;2022-08-21T08:22:53;25.50;81.40
44894;DHT22;30625;52.206;21.030;2022-08-21T08:25:20;25.50;81.90
44894;DHT22;30625;52.206;21.030;2022-08-21T08:27:46;25.60;80.80
44894;DHT22;30625;52.206;21.030;2022-08-21T08:30:13;25.70;80.60
44894;DHT22;30625;52.206;21.030;2022-08-21T08:32:39;25.70;81.00
44894;DHT22;30625;52.206;21.030;2022-08-21T08:35:06;25.80;81.60
44894;DHT22;30625;52.206;21.030;2022-08-21T08:37:32;25.80;81.80
44894;DHT22;30625;52.206;21.030;2022-08-21T08:39:58;25.90;81.00
44894;DHT22;30625;52.206;21.030;2022-08-21T08:42:28;26.00;80.40
44894;DHT22;30625;52.206;21.030;2022-08-21T08:45:04;26.00;80.50
44894;DHT22;30625;52.206;21.030;2022-08-21T08:47:32;26.10;79.90
44894;DHT22;30625;52.206;21.030;2022-08-21T08:50:07;26.20;79.40
44894;DHT22;30625;52.206;21.030;2022-08-21T08:53:02;26.10;79.50
44894;DHT22;30625;52.206;21.030;2022-08-21T08:55:39;26.10;78.90
44894;DHT22;30625;52.206;21.030;2022-08-21T08:58:06;26.00;78.20
44894;DHT22;30625;52.206;21.030;2022-08-21T09:00:32;26.10;77.30
44894;DHT22;30625;52.206;21.030;2022-08-21T09:03:00;26.20;77.30
44894;DHT22;30625;52.206;21.030;2022-08-21T09:05:40;26.20;77.70
44894;DHT22;30625;52.206;21.030;2022-08-21T09:13:50;26.30;76.50
44894;DHT22;30625;52.206;21.030;2022-08-21T09:24:59;26.60;74.80
44894;DHT22;30625;52.206;21.030;2022-08-21T09:27:20;26.60;74.40
44894;DHT22;30625;52.206;21.030;2022-08-21T09:29:50;26.60;73.80
44894;DHT22;30625;52.206;21.030;2022-08-21T09:32:22;26.80;74.40
44894;DHT22;30625;52.206;21.030;2022-08-21T09:35:18;26.90;73.30
44894;DHT22;30625;52.206;21.030;2022-08-21T09:40:23;27.10;72.80
44894;DHT22;30625;52.206;21.030;2022-08-21T09:45:37;26.80;72.10
44894;DHT22;30625;52.206;21.030;2022-08-21T09:48:22;26.70;72.70
44894;DHT22;30625;52.206;21.030;2022-08-21T09:50:49;26.60;74.10
44894;DHT22;30625;52.206;21.030;2022-08-21T09:53:23;26.10;74.00
44894;DHT22;30625;52.206;21.030;2022-08-21T09:55:56;26.90;73.80
44894;DHT22;30625;52.206;21.030;2022-08-21T09:58:43;27.00;72.50
44894;DHT22;30625;52.206;21.030;2022-08-21T10:01:21;27.00;72.70
44894;DHT22;30625;52.206;21.030;2022-08-21T10:03:48;26.90;72.50
44894;DHT22;30625;52.206;21.030;2022-08-21T10:06:26;26.90;73.60
44894;DHT22;30625;52.206;21.030;2022-08-21T10:09:11;26.90;72.90
44894;DHT22;30625;52.206;21.030;2022-08-21T10:11:38;27.10;72.60
44894;DHT22;30625;52.206;21.030;2022-08-21T10:15:08;27.10;71.80
44894;DHT22;30625;52.206;21.030;2022-08-21T10:17:14;27.20;71.90
44894;DHT22;30625;52.206;21.030;2022-08-21T10:25:52;27.30;70.50
44894;DHT22;30625;52.206;21.030;2022-08-21T10:28:36;27.20;71.80
44894;DHT22;30625;52.206;21.030;2022-08-21T10:31:57;27.10;73.30
44894;DHT22;30625;52.206;21.030;2022-08-21T10:35:12;27.10;72.60
44894;DHT22;30625;52.206;21.030;2022-08-21T10:45:25;26.60;72.90
44894;DHT22;30625;52.206;21.030;2022-08-21T10:47:57;26.60;74.10
44894;DHT22;30625;52.206;21.030;2022-08-21T10:53:28;26.50;74.00
44894;DHT22;30625;52.206;21.030;2022-08-21T10:56:22;26.60;72.90
44894;DHT22;30625;52.206;21.030;2022-08-21T10:59:02;26.50;71.80
44894;DHT22;30625;52.206;21.030;2022-08-21T11:01:59;26.40;71.50
44894;DHT22;30625;52.206;21.030;2022-08-21T11:07:11;26.30;73.00
44894;DHT22;30625;52.206;21.030;2022-08-21T11:09:44;26.30;74.00
44894;DHT22;30625;52.206;21.030;2022-08-21T11:14:54;26.30;71.80
44894;DHT22;30625;52.206;21.030;2022-08-21T11:17:43;26.30;71.80
44894;DHT22;30625;52.206;21.030;2022-08-21T11:23:10;26.50;71.90
44894;DHT22;30625;52.206;21.030;2022-08-21T11:25:40;26.70;71.00
44894;DHT22;30625;52.206;21.030;2022-08-21T11:28:13;26.70;71.50
44894;DHT22;30625;52.206;21.030;2022-08-21T11:41:59;27.30;69.10
44894;DHT22;30625;52.206;21.030;2022-08-21T11:47:23;27.30;67.80
44894;DHT22;30625;52.206;21.030;2022-08-21T11:50:13;27.50;67.40
44894;DHT22;30625;52.206;21.030;2022-08-21T11:55:53;27.70;68.80
44894;DHT22;30625;52.206;21.030;2022-08-21T11:58:34;27.90;67.90
44894;DHT22;30625;52.206;21.030;2022-08-21T12:01:07;27.90;67.10
44894;DHT22;30625;52.206;21.030;2022-08-21T12:03:36;28.00;67.00
44894;DHT22;30625;52.206;21.030;2022-08-21T12:06:11;28.10;66.50
44894;DHT22;30625;52.206;21.030;2022-08-21T12:08:42;28.30;66.90
44894;DHT22;30625;52.206;21.030;2022-08-21T12:16:37;28.70;64.80
44894;DHT22;30625;52.206;21.030;2022-08-21T12:19:08;28.70;62.90
44894;DHT22;30625;52.206;21.030;2022-08-21T12:22:09;28.50;64.20
44894;DHT22;30625;52.206;21.030;2022-08-21T12:24:48;28.60;64.80
44894;DHT22;30625;52.206;21.030;2022-08-21T12:29:48;29.30;63.30
44894;DHT22;30625;52.206;21.030;2022-08-21T12:37:29;29.10;64.60
44894;DHT22;30625;52.206;21.030;2022-08-21T12:39:59;28.90;64.40
44894;DHT22;30625;52.206;21.030;2022-08-21T12:42:42;28.70;64.60
44894;DHT22;30625;52.206;21.030;2022-08-21T12:45:23;28.80;64.30
44894;DHT22;30625;52.206;21.030;2022-08-21T12:48:03;28.80;65.90
44894;DHT22;30625;52.206;21.030;2022-08-21T12:50:52;28.90;66.10
44894;DHT22;30625;52.206;21.030;2022-08-21T12:56:11;29.40;64.00
44894;DHT22;30625;52.206;21.030;2022-08-21T12:58:40;29.50;64.20
44894;DHT22;30625;52.206;21.030;2022-08-21T13:01:21;29.20;62.60
44894;DHT22;30625;52.206;21.030;2022-08-21T13:03:50;28.90;62.20
44894;DHT22;30625;52.206;21.030;2022-08-21T13:06:18;28.50;63.50
44894;DHT22;30625;52.206;21.030;2022-08-21T13:08:47;28.30;64.00
44894;DHT22;30625;52.206;21.030;2022-08-21T13:11:16;28.20;65.40
44894;DHT22;30625;52.206;21.030;2022-08-21T13:13:47;28.20;66.10
44894;DHT22;30625;52.206;21.030;2022-08-21T13:16:19;28.10;65.30
44894;DHT22;30625;52.206;21.030;2022-08-21T13:19:16;28.00;66.90
44894;DHT22;30625;52.206;21.030;2022-08-21T13:21:43;27.90;66.40
44894;DHT22;30625;52.206;21.030;2022-08-21T13:24:33;27.80;67.00
44894;DHT22;30625;52.206;21.030;2022-08-21T13:26:59;27.80;68.10
44894;DHT22;30625;52.206;21.030;2022-08-21T13:29:30;27.70;67.50
44894;DHT22;30625;52.206;21.030;2022-08-21T13:31:59;26.60;69.20
44894;DHT22;30625;52.206;21.030;2022-08-21T13:34:30;27.60;69.00
44894;DHT22;30625;52.206;21.030;2022-08-21T13:36:59;27.50;68.80
44894;DHT22;30625;52.206;21.030;2022-08-21T13:39:26;27.50;69.00
44894;DHT22;30625;52.206;21.030;2022-08-21T13:41:55;27.40;68.50
44894;DHT22;30625;52.206;21.030;2022-08-21T13:44:45;27.30;69.10
44894;DHT22;30625;52.206;21.030;2022-08-21T13:47:11;27.30;69.50
44894;DHT22;30625;52.206;21.030;2022-08-21T13:49:42;27.30;70.40
44894;DHT22;30625;52.206;21.030;2022-08-21T13:52:26;27.30;70.80
44894;DHT22;30625;52.206;21.030;2022-08-21T13:54:58;27.20;69.60
44894;DHT22;30625;52.206;21.030;2022-08-21T13:57:32;27.20;68.60
44894;DHT22;30625;52.206;21.030;2022-08-21T14:00:24;27.20;68.50
44894;DHT22;30625;52.206;21.030;2022-08-21T14:02:51;27.10;68.70
44894;DHT22;30625;52.206;21.030;2022-08-21T14:05:26;27.10;69.60
44894;DHT22;30625;52.206;21.030;2022-08-21T14:08:03;27.20;68.70
44894;DHT22;30625;52.206;21.030;2022-08-21T14:10:30;27.20;69.30
44894;DHT22;30625;52.206;21.030;2022-08-21T14:13:02;27.30;68.00
44894;DHT22;30625;52.206;21.030;2022-08-21T14:15:33;27.40;68.30
44894;DHT22;30625;52.206;21.030;2022-08-21T14:18:16;27.30;68.20
44894;DHT22;30625;52.206;21.030;2022-08-21T14:20:43;27.40;67.80
44894;DHT22;30625;52.206;21.030;2022-08-21T14:23:09;27.20;67.90
44894;DHT22;30625;52.206;21.030;2022-08-21T14:25:45;27.30;68.60
44894;DHT22;30625;52.206;21.030;2022-08-21T14:28:31;27.20;68.30
44894;DHT22;30625;52.206;21.030;2022-08-21T14:30:58;27.10;69.60
44894;DHT22;30625;52.206;21.030;2022-08-21T14:33:29;27.00;68.70
44894;DHT22;30625;52.206;21.030;2022-08-21T14:35:57;27.00;69.80
44894;DHT22;30625;52.206;21.030;2022-08-21T14:38:25;28.50;70.80
44894;DHT22;30625;52.206;21.030;2022-08-21T14:41:00;27.10;69.20
44894;DHT22;30625;52.206;21.030;2022-08-21T14:43:28;27.10;68.70
44894;DHT22;30625;52.206;21.030;2022-08-21T14:45:55;27.00;68.60
44894;DHT22;30625;52.206;21.030;2022-08-21T14:48:21;27.00;69.00
44894;DHT22;30625;52.206;21.030;2022-08-21T14:50:46;27.00;69.90
44894;DHT22;30625;52.206;21.030;2022-08-21T14:53:12;27.00;69.30
44894;DHT22;30625;52.206;21.030;2022-08-21T14:55:39;27.00;68.80
44894;DHT22;30625;52.206;21.030;2022-08-21T14:58:24;26.90;68.20
44894;DHT22;30625;52.206;21.030;2022-08-21T15:00:51;27.00;68.70
44894;DHT22;30625;52.206;21.030;2022-08-21T15:03:18;27.00;68.50
44894;DHT22;30625;52.206;21.030;2022-08-21T15:05:44;27.00;68.70
44894;DHT22;30625;52.206;21.030;2022-08-21T15:08:10;27.10;68.20
44894;DHT22;30625;52.206;21.030;2022-08-21T15:10:36;27.00;68.80
44894;DHT22;30625;52.206;21.030;2022-08-21T15:13:02;27.10;68.40
44894;DHT22;30625;52.206;21.030;2022-08-21T15:15:35;27.10;68.20
44894;DHT22;30625;52.206;21.030;2022-08-21T15:18:04;27.00;68.30
44894;DHT22;30625;52.206;21.030;2022-08-21T15:20:29;27.00;69.70
44894;DHT22;30625;52.206;21.030;2022-08-21T15:22:55;26.90;67.40
44894;DHT22;30625;52.206;21.030;2022-08-21T15:25:21;26.90;67.80
44894;DHT22;30625;52.206;21.030;2022-08-21T15:27:47;26.80;69.30
44894;DHT22;30625;52.206;21.030;2022-08-21T15:30:13;26.80;67.20
44894;DHT22;30625;52.206;21.030;2022-08-21T15:32:39;26.90;67.40
44894;DHT22;30625;52.206;21.030;2022-08-21T15:35:07;26.80;67.30
44894;DHT22;30625;52.206;21.030;2022-08-21T15:37:33;27.80;68.90
44894;DHT22;30625;52.206;21.030;2022-08-21T15:39:59;26.70;68.50
44894;DHT22;30625;52.206;21.030;2022-08-21T15:42:25;26.70;67.80
44894;DHT22;30625;52.206;21.030;2022-08-21T15:44:55;26.70;67.90
44894;DHT22;30625;52.206;21.030;2022-08-21T15:47:31;26.60;68.90
44894;DHT22;30625;52.206;21.030;2022-08-21T15:49:58;26.60;69.30
44894;DHT22;30625;52.206;21.030;2022-08-21T15:52:24;25.70;69.10
44894;DHT22;30625;52.206;21.030;2022-08-21T15:54:50;26.60;70.50
44894;DHT22;30625;52.206;21.030;2022-08-21T15:57:20;26.70;71.10
44894;DHT22;30625;52.206;21.030;2022-08-21T15:59:55;26.50;71.00
44894;DHT22;30625;52.206;21.030;2022-08-21T16:02:27;26.50;71.80
44894;DHT22;30625;52.206;21.030;2022-08-21T16:04:54;26.40;72.50
44894;DHT22;30625;52.206;21.030;2022-08-21T16:07:20;26.30;73.30
44894;DHT22;30625;52.206;21.030;2022-08-21T16:09:46;26.20;73.80
44894;DHT22;30625;52.206;21.030;2022-08-21T16:12:24;26.20;75.00
44894;DHT22;30625;52.206;21.030;2022-08-21T16:14:52;27.80;76.20
44894;DHT22;30625;52.206;21.030;2022-08-21T16:17:18;26.00;75.20
44894;DHT22;30625;52.206;21.030;2022-08-21T16:19:44;26.00;75.40
44894;DHT22;30625;52.206;21.030;2022-08-21T16:22:10;26.00;75.70
44894;DHT22;30625;52.206;21.030;2022-08-21T16:24:38;26.50;78.20
44894;DHT22;30625;52.206;21.030;2022-08-21T16:27:03;25.80;75.00
44894;DHT22;30625;52.206;21.030;2022-08-21T16:29:33;25.70;75.10
44894;DHT22;30625;52.206;21.030;2022-08-21T16:31:59;25.10;75.50
44894;DHT22;30625;52.206;21.030;2022-08-21T16:34:25;25.60;76.20
44894;DHT22;30625;52.206;21.030;2022-08-21T16:36:52;25.60;76.00
44894;DHT22;30625;52.206;21.030;2022-08-21T16:39:17;25.60;76.00
44894;DHT22;30625;52.206;21.030;2022-08-21T16:41:43;25.60;76.80
44894;DHT22;30625;52.206;21.030;2022-08-21T16:44:08;25.50;76.50
44894;DHT22;30625;52.206;21.030;2022-08-21T16:46:37;25.50;77.10
44894;DHT22;30625;52.206;21.030;2022-08-21T16:49:04;25.50;76.90